Petitcodiac, Canada
Current Conditions -  °F | °C
As of 11:00 AM on Monday 24 Nov 2014 (Local Time) from CYQM Reporting Station
Broken Clouds Broken Clouds  
Wind Chill: 37°   Ceiling: 16000
Heat Index: 43°   Visibility: 15mi
Dew Point: 37°   Wind: 9mph
Humidity: 81%   Direction: 150°SSE
Pressure: 30.11"   Gusts: NA
Location:  45.93°N, 65.17°W
Report Text: CYQM 241500Z 15008KT 15SM FEW060 SCT100 BKN160 06/03 A3011 RMK SC2AC1AS4 SLP200
Loading
Personal Weather Stations






























Interactive Weather Map New forecast layout! Learn more

10-Day Weather Forecast

Advertisements
Track Severe Weather on mobile